createdAt,value
2022-11-10T00:01:22.013Z,70.63
2022-11-10T00:04:11.072Z,69.30
2022-11-10T00:06:58.458Z,72.53
2022-11-10T00:09:45.798Z,74.03
2022-11-10T00:12:36.150Z,78.10
2022-11-10T00:15:43.806Z,73.05
2022-11-10T00:18:33.408Z,79.70
2022-11-10T00:21:20.782Z,73.15
2022-11-10T00:24:08.122Z,77.57
2022-11-10T00:26:56.439Z,73.30
2022-11-10T00:29:46.510Z,69.50
2022-11-10T00:32:36.589Z,78.03
2022-11-10T00:35:24.697Z,70.93
2022-11-10T00:38:12.418Z,68.65
2022-11-10T00:41:01.314Z,72.70
2022-11-10T00:43:49.144Z,66.38
2022-11-10T00:46:36.876Z,65.25
2022-11-10T00:49:24.562Z,68.72
2022-11-10T00:52:11.296Z,68.05
2022-11-10T00:54:58.778Z,68.60
2022-11-10T00:57:46.657Z,69.90
2022-11-10T01:00:34.263Z,68.65
2022-11-10T01:03:22.638Z,68.63
2022-11-10T01:06:12.123Z,67.10
2022-11-10T01:08:58.853Z,74.38
2022-11-10T01:11:45.805Z,67.75
2022-11-10T01:14:33.024Z,71.65
2022-11-10T01:17:20.144Z,65.15
2022-11-10T01:20:08.767Z,74.97
2022-11-10T01:22:58.374Z,65.32
2022-11-10T01:25:49.054Z,70.38
2022-11-10T01:28:37.525Z,66.03
2022-11-10T01:31:24.374Z,66.40
2022-11-10T01:34:12.072Z,71.65
2022-11-10T01:37:01.970Z,71.10
2022-11-10T01:39:49.846Z,70.93
2022-11-10T01:43:03.523Z,68.57
2022-11-10T01:45:56.499Z,65.03
2022-11-10T01:49:03.613Z,70.63
2022-11-10T01:52:11.499Z,69.25
2022-11-10T01:55:02.081Z,68.38
2022-11-10T01:57:50.216Z,66.53
2022-11-10T02:00:37.000Z,74.45
2022-11-10T02:03:44.650Z,67.80
2022-11-10T02:06:36.649Z,76.80
2022-11-10T02:09:24.235Z,71.47
2022-11-10T02:12:11.678Z,79.13
2022-11-10T02:15:00.591Z,74.45
2022-11-10T02:17:51.094Z,72.53
2022-11-10T02:20:38.905Z,70.97
2022-11-10T02:23:34.044Z,64.40
2022-11-10T02:26:28.834Z,74.90
2022-11-10T02:29:16.028Z,68.40
2022-11-10T02:32:05.772Z,73.30
2022-11-10T02:34:55.531Z,69.50
2022-11-10T02:37:43.226Z,68.32
2022-11-10T02:40:29.793Z,68.55
2022-11-10T02:43:19.459Z,69.07
2022-11-10T02:46:07.074Z,73.13
2022-11-10T02:48:54.229Z,70.85
2022-11-10T02:51:40.895Z,68.05
2022-11-10T02:54:28.218Z,72.30
2022-11-10T02:57:14.849Z,69.72
2022-11-10T03:00:04.742Z,73.80
2022-11-10T03:03:02.527Z,76.55
2022-11-10T03:05:54.311Z,80.65
2022-11-10T03:08:41.471Z,78.05
2022-11-10T03:11:32.237Z,73.80
2022-11-10T03:14:23.378Z,80.22
2022-11-10T03:20:00.707Z,80.13
2022-11-10T03:22:48.095Z,79.97
2022-11-10T03:25:35.691Z,84.78
2022-11-10T03:28:22.972Z,75.45
2022-11-10T03:31:09.785Z,88.05
2022-11-10T03:33:57.308Z,83.30
2022-11-10T03:36:44.281Z,85.60
2022-11-10T03:39:32.004Z,79.25
2022-11-10T03:42:19.109Z,93.93
2022-11-10T03:45:06.701Z,78.50
2022-11-10T03:47:53.614Z,81.65
2022-11-10T03:50:40.995Z,80.40
2022-11-10T03:53:27.994Z,84.82
2022-11-10T03:56:15.320Z,82.32
2022-11-10T03:59:02.703Z,88.35
2022-11-10T04:01:50.550Z,92.82
2022-11-10T04:04:56.120Z,90.15
2022-11-10T04:08:02.989Z,86.45
2022-11-10T04:10:52.800Z,103.25
2022-11-10T04:13:58.868Z,95.68
2022-11-10T04:16:46.475Z,92.65
2022-11-10T04:19:33.742Z,97.07
2022-11-10T04:22:41.767Z,104.70
2022-11-10T04:25:29.453Z,84.68
2022-11-10T04:28:16.421Z,82.03
2022-11-10T04:31:04.460Z,101.15
2022-11-10T04:33:52.326Z,93.63
2022-11-10T04:36:42.266Z,100.78
2022-11-10T04:39:29.423Z,90.72
2022-11-10T04:42:16.672Z,94.78
2022-11-10T04:45:04.778Z,95.00
2022-11-10T04:47:53.056Z,99.82
2022-11-10T04:50:40.252Z,98.30
2022-11-10T04:53:27.557Z,98.63
2022-11-10T04:56:19.569Z,101.97
2022-11-10T04:59:08.322Z,102.55
2022-11-10T05:01:56.207Z,94.28
2022-11-10T05:04:44.327Z,99.43
2022-11-10T05:07:34.077Z,103.78
2022-11-10T05:10:23.023Z,103.57
2022-11-10T05:13:10.802Z,105.10
2022-11-10T05:15:58.724Z,96.57
2022-11-10T05:18:45.884Z,114.10
2022-11-10T05:21:34.507Z,98.93
2022-11-10T05:24:21.739Z,105.15
2022-11-10T05:27:12.612Z,127.10
2022-11-10T05:29:59.308Z,138.52
2022-11-10T05:32:47.553Z,163.02
2022-11-10T05:35:35.175Z,194.73
2022-11-10T05:38:23.463Z,221.02
2022-11-10T05:41:10.329Z,241.02
2022-11-10T05:43:58.013Z,253.60
2022-11-10T05:46:45.029Z,231.35
2022-11-10T05:49:32.340Z,219.18
2022-11-10T05:52:19.212Z,147.25
2022-11-10T05:55:06.767Z,145.95
2022-11-10T05:57:55.272Z,120.53
2022-11-10T06:00:45.037Z,112.40
2022-11-10T06:03:32.297Z,137.40
2022-11-10T06:06:19.483Z,103.85
2022-11-10T06:09:06.464Z,109.97
2022-11-10T06:11:56.034Z,110.70
2022-11-10T06:14:42.955Z,123.50
2022-11-10T06:17:30.204Z,146.00
2022-11-10T06:20:20.088Z,163.48
2022-11-10T06:23:17.627Z,196.13
2022-11-10T06:26:05.179Z,159.50
2022-11-10T06:28:52.342Z,124.28
2022-11-10T06:31:45.622Z,113.85
2022-11-10T06:34:33.624Z,105.82
2022-11-10T06:37:23.573Z,110.00
2022-11-10T06:40:16.821Z,108.05
2022-11-10T06:43:16.189Z,118.07
2022-11-10T06:46:06.052Z,120.75
2022-11-10T06:48:56.713Z,115.30
2022-11-10T06:51:47.576Z,128.52
2022-11-10T06:54:34.443Z,140.15
2022-11-10T06:57:23.947Z,135.73
2022-11-10T07:00:11.838Z,122.45
2022-11-10T07:03:15.708Z,114.15
2022-11-10T07:08:49.831Z,117.35
2022-11-10T07:11:36.445Z,124.93
2022-11-10T07:14:24.637Z,116.63
2022-11-10T07:17:12.169Z,112.97
2022-11-10T07:20:00.149Z,126.07
2022-11-10T07:22:47.022Z,117.13
2022-11-10T07:25:38.463Z,115.95
2022-11-10T07:28:28.351Z,129.70
2022-11-10T07:31:15.874Z,121.22
2022-11-10T07:34:02.878Z,121.45
2022-11-10T07:36:49.976Z,133.48
2022-11-10T07:39:37.325Z,130.77
2022-11-10T07:42:24.407Z,153.95
2022-11-10T07:45:11.561Z,123.43
2022-11-10T07:48:02.885Z,119.63
2022-11-10T07:50:51.260Z,107.05
2022-11-10T07:53:41.864Z,116.88
2022-11-10T07:56:31.833Z,107.65
2022-11-10T07:59:19.683Z,99.50
2022-11-10T08:02:09.226Z,100.88
2022-11-10T08:04:57.419Z,104.63
2022-11-10T08:07:47.049Z,119.43
2022-11-10T08:10:36.369Z,75.90
2022-11-10T08:13:23.528Z,93.10
2022-11-10T08:16:11.276Z,92.80
2022-11-10T08:18:58.459Z,86.90
2022-11-10T08:21:46.108Z,108.88
2022-11-10T08:24:36.690Z,91.53
2022-11-10T08:27:26.843Z,87.40
2022-11-10T08:30:14.248Z,80.72
2022-11-10T08:33:03.262Z,86.78
2022-11-10T08:35:52.047Z,83.00
2022-11-10T08:38:39.078Z,80.60
2022-11-10T08:41:25.950Z,86.50
2022-11-10T08:44:19.622Z,91.72
2022-11-10T08:47:10.019Z,84.90
2022-11-10T08:49:57.248Z,83.28
2022-11-10T08:52:43.852Z,93.85
2022-11-10T08:55:31.121Z,92.60
2022-11-10T08:58:26.021Z,92.38
2022-11-10T09:01:13.202Z,95.13
2022-11-10T09:03:59.783Z,92.07
2022-11-10T09:06:47.379Z,97.30
2022-11-10T09:09:34.638Z,88.75
2022-11-10T09:12:28.046Z,95.18
2022-11-10T09:15:15.175Z,92.25
2022-11-10T09:18:04.052Z,87.35
2022-11-10T09:20:50.904Z,92.20
2022-11-10T09:23:38.275Z,89.88
2022-11-10T09:26:24.940Z,91.75
2022-11-10T09:29:11.816Z,89.35
2022-11-10T09:32:01.642Z,90.22
2022-11-10T09:34:52.959Z,94.18
2022-11-10T09:37:40.716Z,84.28
2022-11-10T09:40:36.998Z,90.80
2022-11-10T09:43:34.078Z,99.35
2022-11-10T09:46:32.683Z,100.43
2022-11-10T09:49:46.895Z,95.68
2022-11-10T09:52:36.711Z,101.95
2022-11-10T09:55:46.720Z,97.85
2022-11-10T09:58:41.043Z,94.50
2022-11-10T10:01:51.958Z,94.15
2022-11-10T10:05:13.189Z,94.00
2022-11-10T10:08:06.822Z,104.22
2022-11-10T10:11:15.321Z,109.60
2022-11-10T10:14:09.532Z,99.78
2022-11-10T10:17:15.490Z,102.55
2022-11-10T10:20:28.118Z,98.95
2022-11-10T10:23:40.370Z,112.35
2022-11-10T10:26:37.441Z,103.22
2022-11-10T10:29:30.887Z,105.80
2022-11-10T10:32:24.173Z,101.97
2022-11-10T10:35:15.965Z,96.18
2022-11-10T10:38:04.889Z,97.57
2022-11-10T10:40:53.384Z,92.10
2022-11-10T10:43:46.663Z,104.25
2022-11-10T10:46:46.649Z,103.85
2022-11-10T10:49:37.155Z,106.90
2022-11-10T10:52:25.556Z,105.18
2022-11-10T10:55:14.276Z,105.53
2022-11-10T10:58:24.843Z,107.55
2022-11-10T11:01:18.442Z,100.10
2022-11-10T11:04:29.359Z,108.32
2022-11-10T11:07:24.872Z,99.60
2022-11-10T11:10:34.061Z,105.13
2022-11-10T11:13:28.237Z,98.55
2022-11-10T11:16:15.500Z,100.30
2022-11-10T11:19:01.884Z,94.32
2022-11-10T11:21:59.501Z,103.78
2022-11-10T11:25:07.491Z,113.32
2022-11-10T11:28:12.622Z,111.15
2022-11-10T11:31:24.158Z,102.95
2022-11-10T11:34:21.853Z,100.70
2022-11-10T11:37:19.577Z,92.22
2022-11-10T11:40:39.418Z,86.80
2022-11-10T11:43:56.601Z,91.07
2022-11-10T11:46:52.364Z,103.45
2022-11-10T11:50:17.122Z,98.45
2022-11-10T11:53:16.178Z,87.70
2022-11-10T11:56:26.319Z,90.70
2022-11-10T11:59:13.312Z,84.22
2022-11-10T12:02:24.202Z,85.45
2022-11-10T12:05:37.014Z,83.15
2022-11-10T12:09:12.859Z,72.10
2022-11-10T12:12:27.005Z,85.53
2022-11-10T12:15:29.894Z,82.68
2022-11-10T12:18:17.163Z,78.80
2022-11-10T12:21:22.454Z,81.30
2022-11-10T12:24:18.664Z,74.28
2022-11-10T12:27:21.161Z,69.75
2022-11-10T12:30:13.908Z,79.22
2022-11-10T12:33:38.141Z,73.38
2022-11-10T12:36:27.976Z,71.63
2022-11-10T12:39:24.638Z,71.18
2022-11-10T12:42:24.536Z,81.38
2022-11-10T12:45:22.171Z,76.88
2022-11-10T12:48:12.779Z,73.57
2022-11-10T12:51:21.926Z,77.70
2022-11-10T12:54:17.039Z,68.32
2022-11-10T12:57:05.694Z,494.05
2022-11-10T13:00:27.802Z,165.02
2022-11-10T13:03:28.945Z,91.88
2022-11-10T13:06:40.553Z,83.82
2022-11-10T13:12:24.032Z,74.85
2022-11-10T13:15:50.889Z,86.00
2022-11-10T13:18:38.505Z,77.68
2022-11-10T13:21:53.952Z,63.13
2022-11-10T13:24:43.415Z,72.15
2022-11-10T13:27:36.066Z,64.97
2022-11-10T13:30:45.118Z,63.55
2022-11-10T13:33:36.972Z,68.40
2022-11-10T13:36:53.371Z,66.88
2022-11-10T13:39:40.276Z,63.72
2022-11-10T13:42:27.688Z,71.20
2022-11-10T13:45:32.228Z,70.50
2022-11-10T13:48:18.954Z,83.68
2022-11-10T13:51:19.637Z,151.52
2022-11-10T13:54:20.513Z,116.97
2022-11-10T13:57:35.907Z,90.18
2022-11-10T14:00:26.114Z,108.40
2022-11-10T14:03:50.418Z,105.75
2022-11-10T14:06:37.081Z,130.88
2022-11-10T14:09:35.309Z,119.38
2022-11-10T14:12:40.034Z,81.20
2022-11-10T14:15:40.197Z,102.15
2022-11-10T14:18:37.707Z,71.97
2022-11-10T14:21:38.725Z,65.90
2022-11-10T14:24:30.686Z,78.68
2022-11-10T14:27:27.287Z,66.00
2022-11-10T14:30:24.965Z,80.10
2022-11-10T14:33:14.341Z,67.30
2022-11-10T14:36:06.042Z,63.17
2022-11-10T14:41:47.570Z,68.90
2022-11-10T14:44:35.147Z,69.47
2022-11-10T14:47:27.744Z,81.13
2022-11-10T14:50:14.236Z,85.47
2022-11-10T14:53:21.687Z,92.15
2022-11-10T14:56:16.931Z,101.75
2022-11-10T14:59:06.578Z,80.03
2022-11-10T15:01:59.346Z,77.32
2022-11-10T15:04:51.939Z,72.72
2022-11-10T15:07:38.468Z,65.75
2022-11-10T15:10:28.842Z,62.22
2022-11-10T15:13:15.248Z,62.60
2022-11-10T15:16:25.625Z,64.95
2022-11-10T15:19:32.587Z,66.70
2022-11-10T15:22:30.074Z,61.75
2022-11-10T15:25:19.456Z,62.92
2022-11-10T15:28:22.116Z,61.17
2022-11-10T15:31:12.689Z,67.40
2022-11-10T15:36:48.166Z,101.30
2022-11-10T15:39:36.733Z,98.53
2022-11-10T15:42:25.086Z,67.25
2022-11-10T15:45:11.980Z,87.57
2022-11-10T15:47:58.597Z,68.13
2022-11-10T15:50:50.293Z,73.63
2022-11-10T15:53:55.293Z,72.97
2022-11-10T15:56:42.198Z,67.68
2022-11-10T15:59:29.244Z,60.53
2022-11-10T16:02:26.167Z,64.63
2022-11-10T16:05:13.448Z,69.95
2022-11-10T16:08:00.457Z,61.65
2022-11-10T16:10:50.682Z,54.70
2022-11-10T16:13:37.789Z,63.40
2022-11-10T16:16:25.145Z,76.32
2022-11-10T16:19:12.829Z,74.55
2022-11-10T16:21:59.264Z,76.38
2022-11-10T16:24:46.324Z,69.28
2022-11-10T16:27:33.576Z,126.35
2022-11-10T16:30:20.599Z,85.95
2022-11-10T16:33:07.237Z,93.38
2022-11-10T16:35:55.731Z,80.80
2022-11-10T16:38:42.143Z,148.23
2022-11-10T16:41:28.895Z,165.70
2022-11-10T16:44:17.017Z,210.55
2022-11-10T16:47:04.192Z,251.10
2022-11-10T16:49:51.194Z,186.85
2022-11-10T16:52:39.631Z,68.15
2022-11-10T16:55:26.208Z,52.28
2022-11-10T16:58:12.824Z,49.00
2022-11-10T17:01:01.547Z,44.58
2022-11-10T17:03:51.592Z,44.40
2022-11-10T17:06:38.302Z,49.13
2022-11-10T17:09:26.927Z,41.10
2022-11-10T17:12:14.875Z,43.95
2022-11-10T17:15:01.935Z,41.95
2022-11-10T17:17:53.987Z,41.78
2022-11-10T17:20:45.028Z,43.50
2022-11-10T17:23:33.698Z,192.85
2022-11-10T17:26:22.092Z,164.00
2022-11-10T17:29:18.774Z,100.90
2022-11-10T17:32:05.799Z,166.20
2022-11-10T17:34:52.013Z,64.60
2022-11-10T17:37:40.590Z,137.50
2022-11-10T17:40:29.320Z,102.60
2022-11-10T17:43:16.755Z,62.75
2022-11-10T17:46:03.580Z,59.42
2022-11-10T17:48:50.442Z,57.75
2022-11-10T17:51:37.739Z,48.80
2022-11-10T17:54:25.686Z,69.53
2022-11-10T17:57:12.147Z,40.08
2022-11-10T17:59:59.112Z,42.78
2022-11-10T18:02:51.210Z,73.05
2022-11-10T18:05:42.061Z,197.02
2022-11-10T18:08:29.256Z,142.20
2022-11-10T18:11:18.539Z,87.22
2022-11-10T18:14:05.085Z,118.85
2022-11-10T18:16:52.857Z,131.75
2022-11-10T18:19:39.884Z,198.10
2022-11-10T18:22:27.059Z,132.15
2022-11-10T18:25:13.552Z,225.45
2022-11-10T18:28:00.534Z,165.73
2022-11-10T18:30:47.504Z,200.73
2022-11-10T18:33:34.824Z,106.00
2022-11-10T18:36:21.534Z,132.93
2022-11-10T18:39:08.414Z,159.13
2022-11-10T18:41:55.048Z,135.43
2022-11-10T18:44:42.493Z,102.72
2022-11-10T18:47:29.270Z,180.20
2022-11-10T18:50:17.402Z,204.80
2022-11-10T18:53:04.490Z,130.40
2022-11-10T18:55:57.698Z,227.13
2022-11-10T18:58:44.705Z,100.20
2022-11-10T19:01:32.065Z,113.03
2022-11-10T19:04:18.860Z,151.05
2022-11-10T19:07:06.278Z,109.68
2022-11-10T19:09:53.245Z,154.20
2022-11-10T19:12:42.658Z,101.57
2022-11-10T19:15:29.297Z,280.50
2022-11-10T19:18:16.479Z,574.88
2022-11-10T19:21:06.089Z,744.60
2022-11-10T19:23:57.615Z,448.35
2022-11-10T19:26:44.343Z,242.93
2022-11-10T19:29:31.582Z,261.10
2022-11-10T19:32:23.638Z,218.48
2022-11-10T19:35:13.595Z,282.92
2022-11-10T19:38:02.486Z,129.68
2022-11-10T19:40:49.815Z,92.22
2022-11-10T19:43:47.119Z,106.28
2022-11-10T19:46:36.963Z,92.28
2022-11-10T19:49:23.864Z,88.80
2022-11-10T19:52:10.605Z,63.72
2022-11-10T19:54:57.402Z,77.63
2022-11-10T19:57:44.261Z,76.63
2022-11-10T20:00:30.904Z,98.28
2022-11-10T20:03:17.763Z,76.70
2022-11-10T20:06:07.426Z,63.75
2022-11-10T20:08:55.371Z,80.88
2022-11-10T20:11:41.900Z,92.97
2022-11-10T20:14:28.829Z,249.57
2022-11-10T20:17:15.653Z,579.15
2022-11-10T20:20:02.333Z,531.97
2022-11-10T20:22:49.067Z,190.55
2022-11-10T20:25:36.077Z,138.30
2022-11-10T20:28:25.358Z,88.88
2022-11-10T20:31:24.665Z,61.15
2022-11-10T20:34:11.508Z,50.38
2022-11-10T20:36:58.118Z,38.90
2022-11-10T20:39:44.905Z,38.53
2022-11-10T20:42:32.509Z,48.08
2022-11-10T20:45:18.956Z,59.03
2022-11-10T20:48:06.073Z,56.35
2022-11-10T20:50:52.781Z,67.30
2022-11-10T20:53:40.458Z,57.25
2022-11-10T20:56:30.492Z,49.63
2022-11-10T20:59:20.363Z,57.63
2022-11-10T21:02:35.378Z,53.97
2022-11-10T21:05:23.434Z,55.25
2022-11-10T21:08:13.102Z,76.38
2022-11-10T21:11:03.492Z,58.58
2022-11-10T21:13:50.168Z,49.50
2022-11-10T21:16:37.432Z,40.17
2022-11-10T21:19:23.962Z,39.85
2022-11-10T21:22:10.772Z,39.33
2022-11-10T21:24:57.396Z,37.40
2022-11-10T21:27:44.257Z,37.72
2022-11-10T21:30:31.210Z,32.80
2022-11-10T21:33:18.978Z,39.10
2022-11-10T21:36:08.601Z,32.58
2022-11-10T21:38:55.853Z,38.60
2022-11-10T21:41:42.371Z,34.22
2022-11-10T21:44:29.488Z,33.53
2022-11-10T21:47:16.611Z,33.72
2022-11-10T21:50:04.946Z,39.35
2022-11-10T21:52:51.377Z,33.63
2022-11-10T21:55:38.218Z,31.80
2022-11-10T21:58:24.672Z,29.63
2022-11-10T22:01:14.688Z,34.85
2022-11-10T22:04:01.691Z,34.40
2022-11-10T22:07:07.378Z,41.42
2022-11-10T22:10:15.093Z,45.15
2022-11-10T22:16:50.708Z,34.92
2022-11-10T22:19:38.044Z,40.75
2022-11-10T22:22:24.867Z,50.40
2022-11-10T22:25:12.152Z,45.03
2022-11-10T22:27:58.730Z,58.70
2022-11-10T22:30:45.539Z,52.40
2022-11-10T22:33:36.802Z,51.00
2022-11-10T22:36:23.604Z,56.13
2022-11-10T22:39:10.419Z,48.00
2022-11-10T22:42:15.454Z,60.05
2022-11-10T22:45:02.100Z,53.15
2022-11-10T22:48:07.550Z,44.95
2022-11-10T22:50:55.621Z,42.72
2022-11-10T22:53:42.423Z,44.13
2022-11-10T22:56:30.966Z,41.97
2022-11-10T22:59:19.195Z,49.22
2022-11-10T23:02:05.825Z,47.45
2022-11-10T23:04:52.822Z,47.03
2022-11-10T23:07:39.590Z,45.05
2022-11-10T23:10:26.535Z,44.00
2022-11-10T23:13:14.835Z,37.05
2022-11-10T23:16:13.232Z,38.65
2022-11-10T23:19:00.112Z,37.42
2022-11-10T23:21:46.860Z,44.05
2022-11-10T23:24:33.686Z,37.97
2022-11-10T23:27:20.856Z,43.95
2022-11-10T23:30:07.577Z,46.10
2022-11-10T23:32:55.517Z,41.50
2022-11-10T23:35:42.352Z,46.40
2022-11-10T23:38:34.958Z,41.22
2022-11-10T23:41:27.002Z,45.92
2022-11-10T23:44:14.058Z,47.47
2022-11-10T23:47:00.721Z,40.60
2022-11-10T23:49:47.719Z,41.40
2022-11-10T23:52:35.333Z,38.63
2022-11-10T23:55:22.088Z,50.90
2022-11-10T23:58:08.985Z,43.72
